sensor_id;sensor_type;location;lat;lon;timestamp;pressure;altitude;pressure_sealevel;temperature;humidity
63009;BME280;49099;28.428;-16.488;2023-07-16T00:01:01;98872.13;;;24.61;59.67
63009;BME280;49099;28.428;-16.488;2023-07-16T00:03:28;98873.69;;;24.62;59.06
63009;BME280;49099;28.428;-16.488;2023-07-16T00:05:56;98863.88;;;24.58;59.72
63009;BME280;49099;28.428;-16.488;2023-07-16T00:08:23;98878.03;;;24.51;60.32
63009;BME280;49099;28.428;-16.488;2023-07-16T00:10:50;98870.84;;;24.43;60.04
63009;BME280;49099;28.428;-16.488;2023-07-16T00:13:17;98877.75;;;24.40;60.24
63009;BME280;49099;28.428;-16.488;2023-07-16T00:15:44;98877.16;;;24.47;60.00
63009;BME280;49099;28.428;-16.488;2023-07-16T00:18:12;98865.13;;;24.60;58.71
63009;BME280;49099;28.428;-16.488;2023-07-16T00:20:39;98867.31;;;24.70;56.85
63009;BME280;49099;28.428;-16.488;2023-07-16T00:23:06;98868.47;;;24.69;57.10
63009;BME280;49099;28.428;-16.488;2023-07-16T00:25:33;98867.88;;;24.76;57.58
63009;BME280;49099;28.428;-16.488;2023-07-16T00:28:02;98863.22;;;24.77;56.89
63009;BME280;49099;28.428;-16.488;2023-07-16T00:30:29;98861.53;;;24.72;57.80
63009;BME280;49099;28.428;-16.488;2023-07-16T00:32:56;98855.25;;;24.68;57.84
63009;BME280;49099;28.428;-16.488;2023-07-16T00:35:24;98862.84;;;24.62;57.45
63009;BME280;49099;28.428;-16.488;2023-07-16T00:37:51;98865.72;;;24.54;57.72
63009;BME280;49099;28.428;-16.488;2023-07-16T00:40:18;98854.09;;;24.53;57.86
63009;BME280;49099;28.428;-16.488;2023-07-16T00:42:45;98854.34;;;24.48;57.64
63009;BME280;49099;28.428;-16.488;2023-07-16T00:45:13;98850.41;;;24.45;58.38
63009;BME280;49099;28.428;-16.488;2023-07-16T00:47:42;98843.72;;;24.43;58.81
63009;BME280;49099;28.428;-16.488;2023-07-16T00:50:11;98840.53;;;24.53;58.56
63009;BME280;49099;28.428;-16.488;2023-07-16T00:52:39;98839.59;;;24.61;58.39
63009;BME280;49099;28.428;-16.488;2023-07-16T00:55:07;98842.03;;;24.66;57.78
63009;BME280;49099;28.428;-16.488;2023-07-16T00:57:34;98837.50;;;24.70;57.64
63009;BME280;49099;28.428;-16.488;2023-07-16T01:00:03;98827.50;;;24.74;56.92
63009;BME280;49099;28.428;-16.488;2023-07-16T01:02:30;98831.88;;;24.79;56.69
63009;BME280;49099;28.428;-16.488;2023-07-16T01:04:57;98820.00;;;24.84;56.63
63009;BME280;49099;28.428;-16.488;2023-07-16T01:07:27;98813.00;;;24.83;56.24
63009;BME280;49099;28.428;-16.488;2023-07-16T01:09:55;98814.47;;;24.80;56.50
63009;BME280;49099;28.428;-16.488;2023-07-16T01:12:23;98808.25;;;24.80;56.02
63009;BME280;49099;28.428;-16.488;2023-07-16T01:14:51;98805.53;;;24.80;55.37
63009;BME280;49099;28.428;-16.488;2023-07-16T01:17:19;98793.38;;;24.73;54.80
63009;BME280;49099;28.428;-16.488;2023-07-16T01:19:46;98801.88;;;24.72;54.32
63009;BME280;49099;28.428;-16.488;2023-07-16T01:22:41;98794.53;;;24.72;54.60
63009;BME280;49099;28.428;-16.488;2023-07-16T01:25:39;98791.38;;;24.70;54.50
63009;BME280;49099;28.428;-16.488;2023-07-16T01:30:50;98773.53;;;24.69;54.24
63009;BME280;49099;28.428;-16.488;2023-07-16T01:33:19;98776.25;;;24.69;53.73
63009;BME280;49099;28.428;-16.488;2023-07-16T01:35:48;98764.78;;;24.60;53.12
63009;BME280;49099;28.428;-16.488;2023-07-16T01:38:17;98763.03;;;24.52;53.09
63009;BME280;49099;28.428;-16.488;2023-07-16T01:40:45;98758.72;;;24.35;52.88
63009;BME280;49099;28.428;-16.488;2023-07-16T01:43:12;98750.47;;;24.32;53.01
63009;BME280;49099;28.428;-16.488;2023-07-16T01:45:40;98758.06;;;24.26;53.08
63009;BME280;49099;28.428;-16.488;2023-07-16T01:50:44;98746.19;;;24.31;53.46
63009;BME280;49099;28.428;-16.488;2023-07-16T01:53:11;98744.47;;;24.38;53.29
63009;BME280;49099;28.428;-16.488;2023-07-16T01:55:38;98744.47;;;24.38;53.26
63009;BME280;49099;28.428;-16.488;2023-07-16T01:58:05;98739.84;;;24.39;53.34
63009;BME280;49099;28.428;-16.488;2023-07-16T02:00:32;98740.63;;;24.39;53.58
63009;BME280;49099;28.428;-16.488;2023-07-16T02:03:00;98734.59;;;24.46;53.84
63009;BME280;49099;28.428;-16.488;2023-07-16T02:05:27;98733.88;;;24.49;53.12
63009;BME280;49099;28.428;-16.488;2023-07-16T02:07:54;98731.53;;;24.48;53.84
63009;BME280;49099;28.428;-16.488;2023-07-16T02:10:21;98736.59;;;24.49;53.52
63009;BME280;49099;28.428;-16.488;2023-07-16T02:12:48;98734.69;;;24.50;53.73
63009;BME280;49099;28.428;-16.488;2023-07-16T02:15:15;98737.13;;;24.55;53.75
63009;BME280;49099;28.428;-16.488;2023-07-16T02:17:44;98741.06;;;24.57;52.44
63009;BME280;49099;28.428;-16.488;2023-07-16T02:20:12;98743.88;;;24.45;52.26
63009;BME280;49099;28.428;-16.488;2023-07-16T02:22:39;98740.19;;;24.37;54.88
63009;BME280;49099;28.428;-16.488;2023-07-16T02:25:07;98736.47;;;24.30;57.60
63009;BME280;49099;28.428;-16.488;2023-07-16T02:27:34;98731.66;;;24.23;59.08
63009;BME280;49099;28.428;-16.488;2023-07-16T02:30:01;98731.56;;;24.19;59.57
63009;BME280;49099;28.428;-16.488;2023-07-16T02:32:29;98722.31;;;24.21;60.24
63009;BME280;49099;28.428;-16.488;2023-07-16T02:34:56;98718.47;;;24.22;60.26
63009;BME280;49099;28.428;-16.488;2023-07-16T02:37:23;98723.09;;;24.21;61.90
63009;BME280;49099;28.428;-16.488;2023-07-16T02:39:50;98720.72;;;24.19;61.33
63009;BME280;49099;28.428;-16.488;2023-07-16T02:42:18;98710.50;;;24.13;62.14
63009;BME280;49099;28.428;-16.488;2023-07-16T02:44:45;98710.94;;;24.15;61.56
63009;BME280;49099;28.428;-16.488;2023-07-16T02:47:12;98710.16;;;24.14;61.76
63009;BME280;49099;28.428;-16.488;2023-07-16T02:49:39;98710.16;;;24.14;61.81
63009;BME280;49099;28.428;-16.488;2023-07-16T02:52:07;98706.72;;;24.17;61.84
63009;BME280;49099;28.428;-16.488;2023-07-16T02:54:37;98711.91;;;24.23;61.31
63009;BME280;49099;28.428;-16.488;2023-07-16T02:57:05;98704.63;;;24.27;60.46
63009;BME280;49099;28.428;-16.488;2023-07-16T02:59:32;98699.69;;;24.29;59.84
63009;BME280;49099;28.428;-16.488;2023-07-16T03:01:59;98699.44;;;24.34;59.35
63009;BME280;49099;28.428;-16.488;2023-07-16T03:04:26;98700.38;;;24.41;59.14
63009;BME280;49099;28.428;-16.488;2023-07-16T03:06:53;98685.38;;;24.44;58.63
63009;BME280;49099;28.428;-16.488;2023-07-16T03:09:20;98694.19;;;24.41;58.37
63009;BME280;49099;28.428;-16.488;2023-07-16T03:11:48;98687.38;;;24.47;58.34
63009;BME280;49099;28.428;-16.488;2023-07-16T03:14:15;98696.81;;;24.37;58.41
63009;BME280;49099;28.428;-16.488;2023-07-16T03:16:42;98687.91;;;24.37;58.45
63009;BME280;49099;28.428;-16.488;2023-07-16T03:19:09;98691.81;;;24.39;57.84
63009;BME280;49099;28.428;-16.488;2023-07-16T03:21:36;98684.91;;;24.42;58.32
63009;BME280;49099;28.428;-16.488;2023-07-16T03:24:04;98679.78;;;24.37;57.95
63009;BME280;49099;28.428;-16.488;2023-07-16T03:26:31;98682.91;;;24.39;58.13
63009;BME280;49099;28.428;-16.488;2023-07-16T03:28:58;98674.78;;;24.39;57.80
63009;BME280;49099;28.428;-16.488;2023-07-16T03:31:25;98678.81;;;24.45;57.75
63009;BME280;49099;28.428;-16.488;2023-07-16T03:33:53;98678.09;;;24.48;57.42
63009;BME280;49099;28.428;-16.488;2023-07-16T03:36:20;98684.31;;;24.49;57.17
63009;BME280;49099;28.428;-16.488;2023-07-16T03:38:47;98680.03;;;24.48;57.27
63009;BME280;49099;28.428;-16.488;2023-07-16T03:41:14;98674.94;;;24.46;57.35
63009;BME280;49099;28.428;-16.488;2023-07-16T03:43:41;98671.44;;;24.45;57.42
63009;BME280;49099;28.428;-16.488;2023-07-16T03:46:09;98671.81;;;24.44;57.48
63009;BME280;49099;28.428;-16.488;2023-07-16T03:48:36;98668.75;;;24.45;57.13
63009;BME280;49099;28.428;-16.488;2023-07-16T03:51:03;98669.09;;;24.44;57.55
63009;BME280;49099;28.428;-16.488;2023-07-16T03:53:30;98678.09;;;24.48;57.16
63009;BME280;49099;28.428;-16.488;2023-07-16T03:55:57;98683.50;;;24.48;56.65
63009;BME280;49099;28.428;-16.488;2023-07-16T03:58:24;98673.81;;;24.47;56.75
63009;BME280;49099;28.428;-16.488;2023-07-16T04:00:51;98675.72;;;24.47;56.73
63009;BME280;49099;28.428;-16.488;2023-07-16T04:03:19;98679.66;;;24.49;56.63
63009;BME280;49099;28.428;-16.488;2023-07-16T04:05:46;98678.09;;;24.48;56.64
63009;BME280;49099;28.428;-16.488;2023-07-16T04:08:14;98675.72;;;24.47;56.76
63009;BME280;49099;28.428;-16.488;2023-07-16T04:10:41;98676.41;;;24.43;56.65
63009;BME280;49099;28.428;-16.488;2023-07-16T04:13:08;98679.78;;;24.37;56.90
63009;BME280;49099;28.428;-16.488;2023-07-16T04:15:35;98678.63;;;24.38;57.75
63009;BME280;49099;28.428;-16.488;2023-07-16T04:18:02;98682.28;;;24.30;58.85
63009;BME280;49099;28.428;-16.488;2023-07-16T04:20:31;98674.41;;;24.25;58.80
63009;BME280;49099;28.428;-16.488;2023-07-16T04:23:00;98678.78;;;24.13;59.28
63009;BME280;49099;28.428;-16.488;2023-07-16T04:25:27;98678.59;;;24.06;59.35
63009;BME280;49099;28.428;-16.488;2023-07-16T04:27:55;98679.25;;;24.03;59.33
63009;BME280;49099;28.428;-16.488;2023-07-16T04:30:23;98676.13;;;24.01;59.29
63009;BME280;49099;28.428;-16.488;2023-07-16T04:32:50;98673.69;;;24.12;59.00
63009;BME280;49099;28.428;-16.488;2023-07-16T04:35:17;98669.94;;;24.16;58.43
63009;BME280;49099;28.428;-16.488;2023-07-16T04:37:45;98671.25;;;24.23;58.04
63009;BME280;49099;28.428;-16.488;2023-07-16T04:40:12;98663.97;;;24.27;57.31
63009;BME280;49099;28.428;-16.488;2023-07-16T04:42:39;98676.75;;;24.26;57.13
63009;BME280;49099;28.428;-16.488;2023-07-16T04:45:07;98673.69;;;24.28;57.28
63009;BME280;49099;28.428;-16.488;2023-07-16T04:47:34;98673.00;;;24.31;57.24
63009;BME280;49099;28.428;-16.488;2023-07-16T04:50:02;98667.59;;;24.31;57.02
63009;BME280;49099;28.428;-16.488;2023-07-16T04:52:29;98669.16;;;24.32;57.27
63009;BME280;49099;28.428;-16.488;2023-07-16T04:54:58;98667.34;;;24.36;56.85
63009;BME280;49099;28.428;-16.488;2023-07-16T04:57:25;98665.75;;;24.35;56.38
63009;BME280;49099;28.428;-16.488;2023-07-16T04:59:53;98667.59;;;24.31;55.63
63009;BME280;49099;28.428;-16.488;2023-07-16T05:02:20;98666.22;;;24.37;56.58
63009;BME280;49099;28.428;-16.488;2023-07-16T05:04:47;98664.66;;;24.36;55.46
63009;BME280;49099;28.428;-16.488;2023-07-16T05:07:15;98661.56;;;24.37;55.51
63009;BME280;49099;28.428;-16.488;2023-07-16T05:09:43;98668.63;;;24.42;55.72
63009;BME280;49099;28.428;-16.488;2023-07-16T05:12:10;98662.78;;;24.40;55.34
63009;BME280;49099;28.428;-16.488;2023-07-16T05:14:47;98675.63;;;24.43;54.07
63009;BME280;49099;28.428;-16.488;2023-07-16T05:17:15;98660.78;;;24.37;54.49
63009;BME280;49099;28.428;-16.488;2023-07-16T05:19:42;98666.91;;;24.34;54.44
63009;BME280;49099;28.428;-16.488;2023-07-16T05:22:09;98670.06;;;24.36;54.17
63009;BME280;49099;28.428;-16.488;2023-07-16T05:24:36;98668.94;;;24.37;53.81
63009;BME280;49099;28.428;-16.488;2023-07-16T05:27:04;98669.25;;;24.35;54.66
63009;BME280;49099;28.428;-16.488;2023-07-16T05:29:31;98666.22;;;24.37;53.98
63009;BME280;49099;28.428;-16.488;2023-07-16T05:31:58;98672.31;;;24.34;53.62
63009;BME280;49099;28.428;-16.488;2023-07-16T05:34:26;98677.75;;;24.34;53.56
63009;BME280;49099;28.428;-16.488;2023-07-16T05:36:54;98671.53;;;24.33;53.40
63009;BME280;49099;28.428;-16.488;2023-07-16T05:39:22;98672.31;;;24.34;53.10
63009;BME280;49099;28.428;-16.488;2023-07-16T05:41:49;98680.91;;;24.36;53.41
63009;BME280;49099;28.428;-16.488;2023-07-16T05:44:16;98674.56;;;24.32;53.89
63009;BME280;49099;28.428;-16.488;2023-07-16T05:46:44;98681.91;;;24.31;53.41
63009;BME280;49099;28.428;-16.488;2023-07-16T05:49:11;98672.22;;;24.30;53.43
63009;BME280;49099;28.428;-16.488;2023-07-16T05:51:38;98680.00;;;24.32;53.09
63009;BME280;49099;28.428;-16.488;2023-07-16T05:54:05;98675.72;;;24.31;53.10
63009;BME280;49099;28.428;-16.488;2023-07-16T05:56:33;98672.22;;;24.30;53.64
63009;BME280;49099;28.428;-16.488;2023-07-16T05:59:00;98678.69;;;24.26;53.23
63009;BME280;49099;28.428;-16.488;2023-07-16T06:01:27;98677.09;;;24.25;53.56
63009;BME280;49099;28.428;-16.488;2023-07-16T06:03:54;98661.97;;;24.24;54.05
63009;BME280;49099;28.428;-16.488;2023-07-16T06:06:22;98662.06;;;24.27;53.96
63009;BME280;49099;28.428;-16.488;2023-07-16T06:08:49;98648.78;;;24.22;53.31
63009;BME280;49099;28.428;-16.488;2023-07-16T06:11:16;98646.31;;;24.17;53.59
63009;BME280;49099;28.428;-16.488;2023-07-16T06:13:43;98648.06;;;24.09;53.00
63009;BME280;49099;28.428;-16.488;2023-07-16T06:16:11;98649.13;;;24.05;53.50
63009;BME280;49099;28.428;-16.488;2023-07-16T06:18:38;98648.31;;;24.04;53.17
63009;BME280;49099;28.428;-16.488;2023-07-16T06:21:05;98653.06;;;24.07;53.06
63009;BME280;49099;28.428;-16.488;2023-07-16T06:23:33;98650.09;;;24.12;52.26
63009;BME280;49099;28.428;-16.488;2023-07-16T06:26:00;98650.34;;;24.07;52.50
63009;BME280;49099;28.428;-16.488;2023-07-16T06:28:27;98650.78;;;24.09;52.84
63009;BME280;49099;28.428;-16.488;2023-07-16T06:30:55;98653.06;;;24.07;51.82
63009;BME280;49099;28.428;-16.488;2023-07-16T06:33:22;98653.06;;;24.07;51.84
63009;BME280;49099;28.428;-16.488;2023-07-16T06:35:50;98651.31;;;23.99;51.75
63009;BME280;49099;28.428;-16.488;2023-07-16T06:38:17;98647.28;;;23.93;52.11
63009;BME280;49099;28.428;-16.488;2023-07-16T06:40:51;98649.56;;;23.91;52.59
63009;BME280;49099;28.428;-16.488;2023-07-16T06:43:19;98656.72;;;23.83;53.10
63009;BME280;49099;28.428;-16.488;2023-07-16T06:45:49;98649.38;;;23.84;53.73
63009;BME280;49099;28.428;-16.488;2023-07-16T06:48:16;98653.88;;;23.80;53.99
63009;BME280;49099;28.428;-16.488;2023-07-16T06:50:44;98658.44;;;23.76;56.01
63009;BME280;49099;28.428;-16.488;2023-07-16T06:53:12;98650.66;;;23.74;57.68
63009;BME280;49099;28.428;-16.488;2023-07-16T06:55:39;98653.03;;;23.76;58.21
63009;BME280;49099;28.428;-16.488;2023-07-16T06:58:10;98658.44;;;23.76;58.87
63009;BME280;49099;28.428;-16.488;2023-07-16T07:00:37;98663.84;;;23.76;58.28
63009;BME280;49099;28.428;-16.488;2023-07-16T07:03:04;98664.91;;;23.87;58.06
63009;BME280;49099;28.428;-16.488;2023-07-16T07:05:32;98663.97;;;23.95;58.00
63009;BME280;49099;28.428;-16.488;2023-07-16T07:07:59;98665.41;;;24.05;57.71
63009;BME280;49099;28.428;-16.488;2023-07-16T07:10:26;98671.13;;;24.03;58.94
63009;BME280;49099;28.428;-16.488;2023-07-16T07:12:53;98672.03;;;24.07;58.55
63009;BME280;49099;28.428;-16.488;2023-07-16T07:15:21;98678.78;;;24.13;58.20
63009;BME280;49099;28.428;-16.488;2023-07-16T07:17:48;98677.97;;;24.13;58.21
63009;BME280;49099;28.428;-16.488;2023-07-16T07:20:15;98673.53;;;24.21;58.10
63009;BME280;49099;28.428;-16.488;2023-07-16T07:22:42;98681.81;;;24.28;57.66
63009;BME280;49099;28.428;-16.488;2023-07-16T07:25:10;98670.06;;;24.36;57.27
63009;BME280;49099;28.428;-16.488;2023-07-16T07:27:37;98670.22;;;24.43;57.12
63009;BME280;49099;28.428;-16.488;2023-07-16T07:30:04;98669.94;;;24.48;56.78
63009;BME280;49099;28.428;-16.488;2023-07-16T07:32:32;98671.28;;;24.54;56.49
63009;BME280;49099;28.428;-16.488;2023-07-16T07:34:59;98668.28;;;24.59;56.27
63009;BME280;49099;28.428;-16.488;2023-07-16T07:37:29;98671.44;;;24.61;55.91
63009;BME280;49099;28.428;-16.488;2023-07-16T07:39:58;98669.16;;;24.63;55.11
63009;BME280;49099;28.428;-16.488;2023-07-16T07:42:26;98672.13;;;24.58;55.39
63009;BME280;49099;28.428;-16.488;2023-07-16T07:44:56;98669.88;;;24.44;55.64
63009;BME280;49099;28.428;-16.488;2023-07-16T07:47:23;98676.78;;;24.42;55.68
63009;BME280;49099;28.428;-16.488;2023-07-16T07:49:52;98680.00;;;24.32;56.70
63009;BME280;49099;28.428;-16.488;2023-07-16T07:52:19;98690.84;;;24.32;56.72
63009;BME280;49099;28.428;-16.488;2023-07-16T07:54:47;98683.84;;;24.31;57.10
63009;BME280;49099;28.428;-16.488;2023-07-16T07:57:14;98680.44;;;24.34;57.58
63009;BME280;49099;28.428;-16.488;2023-07-16T07:59:44;98690.06;;;24.31;57.59
63009;BME280;49099;28.428;-16.488;2023-07-16T08:02:11;98684.53;;;24.28;57.84
63009;BME280;49099;28.428;-16.488;2023-07-16T08:04:38;98683.84;;;24.31;58.12
63009;BME280;49099;28.428;-16.488;2023-07-16T08:07:05;98697.19;;;24.36;58.09
63009;BME280;49099;28.428;-16.488;2023-07-16T08:09:32;98689.91;;;24.40;58.15
63009;BME280;49099;28.428;-16.488;2023-07-16T08:12:00;98701.53;;;24.40;58.37
63009;BME280;49099;28.428;-16.488;2023-07-16T08:14:27;98702.66;;;24.39;58.40
63009;BME280;49099;28.428;-16.488;2023-07-16T08:16:56;98714.06;;;24.45;58.15
63009;BME280;49099;28.428;-16.488;2023-07-16T08:19:23;98709.59;;;24.37;58.40
63009;BME280;49099;28.428;-16.488;2023-07-16T08:21:50;98711.41;;;24.33;58.88
63009;BME280;49099;28.428;-16.488;2023-07-16T08:24:17;98710.94;;;24.31;58.67
63009;BME280;49099;28.428;-16.488;2023-07-16T08:26:45;98718.28;;;24.30;58.57
63009;BME280;49099;28.428;-16.488;2023-07-16T08:29:12;98714.72;;;24.42;58.36
63009;BME280;49099;28.428;-16.488;2023-07-16T08:31:39;98711.22;;;24.57;58.13
63009;BME280;49099;28.428;-16.488;2023-07-16T08:34:07;98714.47;;;24.63;57.37
63009;BME280;49099;28.428;-16.488;2023-07-16T08:36:35;98713.69;;;24.62;57.57
63009;BME280;49099;28.428;-16.488;2023-07-16T08:39:03;98713.25;;;24.60;57.68
63009;BME280;49099;28.428;-16.488;2023-07-16T08:41:31;98709.41;;;24.61;55.89
63009;BME280;49099;28.428;-16.488;2023-07-16T08:43:58;98710.53;;;24.60;55.49
63009;BME280;49099;28.428;-16.488;2023-07-16T08:46:26;98703.97;;;24.61;55.74
63009;BME280;49099;28.428;-16.488;2023-07-16T08:48:53;98705.38;;;24.71;55.37
63009;BME280;49099;28.428;-16.488;2023-07-16T08:51:21;98708.66;;;24.80;54.48
63009;BME280;49099;28.428;-16.488;2023-07-16T08:53:48;98710.53;;;24.76;54.36
63009;BME280;49099;28.428;-16.488;2023-07-16T08:56:16;98719.88;;;24.79;53.42
63009;BME280;49099;28.428;-16.488;2023-07-16T08:58:43;98713.91;;;24.89;52.84
63009;BME280;49099;28.428;-16.488;2023-07-16T09:01:12;98711.78;;;24.98;53.11
63009;BME280;49099;28.428;-16.488;2023-07-16T09:03:40;98711.78;;;24.98;53.74
63009;BME280;49099;28.428;-16.488;2023-07-16T09:06:07;98709.72;;;25.07;54.14
63009;BME280;49099;28.428;-16.488;2023-07-16T09:08:34;98708.75;;;24.99;54.27
63009;BME280;49099;28.428;-16.488;2023-07-16T09:11:01;98709.78;;;24.95;54.61
63009;BME280;49099;28.428;-16.488;2023-07-16T09:13:29;98721.78;;;24.94;55.17
63009;BME280;49099;28.428;-16.488;2023-07-16T09:15:58;98719.50;;;24.96;55.21
63009;BME280;49099;28.428;-16.488;2023-07-16T09:18:26;98711.09;;;25.01;54.30
63009;BME280;49099;28.428;-16.488;2023-07-16T09:20:58;98715.13;;;25.07;54.96
63009;BME280;49099;28.428;-16.488;2023-07-16T09:23:30;98714.34;;;25.07;54.76
63009;BME280;49099;28.428;-16.488;2023-07-16T09:25:57;98720.38;;;25.00;54.65
63009;BME280;49099;28.428;-16.488;2023-07-16T09:28:25;98722.41;;;25.03;54.17
63009;BME280;49099;28.428;-16.488;2023-07-16T09:30:52;98716.16;;;25.18;52.98
63009;BME280;49099;28.428;-16.488;2023-07-16T09:33:21;98718.75;;;25.31;52.56
63009;BME280;49099;28.428;-16.488;2023-07-16T09:35:50;98718.19;;;25.41;52.04
63009;BME280;49099;28.428;-16.488;2023-07-16T09:38:18;98721.03;;;25.48;52.63
63009;BME280;49099;28.428;-16.488;2023-07-16T09:40:45;98727.78;;;25.54;50.32
63009;BME280;49099;28.428;-16.488;2023-07-16T09:43:13;98728.81;;;25.49;50.51
63009;BME280;49099;28.428;-16.488;2023-07-16T09:45:42;98724.59;;;25.33;51.27
63009;BME280;49099;28.428;-16.488;2023-07-16T09:48:09;98732.81;;;25.36;50.57
63009;BME280;49099;28.428;-16.488;2023-07-16T09:50:38;98728.69;;;25.42;50.92
63009;BME280;49099;28.428;-16.488;2023-07-16T09:53:05;98728.78;;;25.46;50.86
63009;BME280;49099;28.428;-16.488;2023-07-16T09:55:35;98734.91;;;25.62;52.05
63009;BME280;49099;28.428;-16.488;2023-07-16T09:58:07;98728.19;;;25.75;53.40
63009;BME280;49099;28.428;-16.488;2023-07-16T10:00:36;98731.47;;;25.65;52.90
63009;BME280;49099;28.428;-16.488;2023-07-16T10:03:07;98741.19;;;25.66;52.86
63009;BME280;49099;28.428;-16.488;2023-07-16T10:05:37;98742.69;;;25.64;52.94
63009;BME280;49099;28.428;-16.488;2023-07-16T10:08:16;98735.75;;;25.66;53.09
63009;BME280;49099;28.428;-16.488;2023-07-16T10:10:45;98735.34;;;25.64;52.71
63009;BME280;49099;28.428;-16.488;2023-07-16T10:13:17;98740.66;;;25.76;52.62
63009;BME280;49099;28.428;-16.488;2023-07-16T10:15:58;98747.03;;;25.84;52.45
63009;BME280;49099;28.428;-16.488;2023-07-16T10:18:32;98743.22;;;25.89;53.02
63009;BME280;49099;28.428;-16.488;2023-07-16T10:21:05;98744.66;;;25.82;52.99
63009;BME280;49099;28.428;-16.488;2023-07-16T10:23:42;98737.78;;;25.89;53.80
63009;BME280;49099;28.428;-16.488;2023-07-16T10:26:15;98751.53;;;25.76;55.69
63009;BME280;49099;28.428;-16.488;2023-07-16T10:28:46;98751.06;;;25.55;56.03
63009;BME280;49099;28.428;-16.488;2023-07-16T10:31:21;98741.47;;;25.42;56.20
63009;BME280;49099;28.428;-16.488;2023-07-16T10:34:03;98750.19;;;25.51;55.17
63009;BME280;49099;28.428;-16.488;2023-07-16T10:36:39;98749.56;;;25.58;54.50
63009;BME280;49099;28.428;-16.488;2023-07-16T10:39:06;98743.28;;;25.53;54.55
63009;BME280;49099;28.428;-16.488;2023-07-16T10:41:34;98749.78;;;25.68;54.24
63009;BME280;49099;28.428;-16.488;2023-07-16T10:44:02;98740.72;;;25.80;51.83
63009;BME280;49099;28.428;-16.488;2023-07-16T10:46:31;98740.22;;;25.74;49.55
63009;BME280;49099;28.428;-16.488;2023-07-16T10:49:00;98736.06;;;25.80;50.87
63009;BME280;49099;28.428;-16.488;2023-07-16T10:51:27;98739.34;;;25.90;49.63
63009;BME280;49099;28.428;-16.488;2023-07-16T10:53:55;98736.22;;;25.88;48.65
63009;BME280;49099;28.428;-16.488;2023-07-16T10:56:24;98741.28;;;25.89;49.58
63009;BME280;49099;28.428;-16.488;2023-07-16T10:58:51;98729.63;;;25.69;50.64
63009;BME280;49099;28.428;-16.488;2023-07-16T11:01:19;98731.88;;;25.67;51.07
63009;BME280;49099;28.428;-16.488;2023-07-16T11:03:47;98738.38;;;25.78;51.68
63009;BME280;49099;28.428;-16.488;2023-07-16T11:06:15;98741.66;;;25.88;51.33
63009;BME280;49099;28.428;-16.488;2023-07-16T11:08:44;98740.28;;;25.97;51.66
63009;BME280;49099;28.428;-16.488;2023-07-16T11:11:11;98747.09;;;25.88;51.48
63009;BME280;49099;28.428;-16.488;2023-07-16T11:13:38;98746.50;;;25.98;51.84
63009;BME280;49099;28.428;-16.488;2023-07-16T11:16:09;98738.19;;;26.10;51.95
63009;BME280;49099;28.428;-16.488;2023-07-16T11:18:37;98730.94;;;26.18;51.72
63009;BME280;49099;28.428;-16.488;2023-07-16T11:21:06;98739.09;;;26.18;52.42
63009;BME280;49099;28.428;-16.488;2023-07-16T11:23:34;98730.72;;;26.26;51.68
63009;BME280;49099;28.428;-16.488;2023-07-16T11:26:03;98738.00;;;26.22;52.13
63009;BME280;49099;28.428;-16.488;2023-07-16T11:28:41;98738.75;;;26.19;52.60
63009;BME280;49099;28.428;-16.488;2023-07-16T11:31:16;98740.44;;;26.27;52.18
63009;BME280;49099;28.428;-16.488;2023-07-16T11:33:45;98734.75;;;26.13;52.25
63009;BME280;49099;28.428;-16.488;2023-07-16T11:36:13;98734.91;;;26.01;52.80
63009;BME280;49099;28.428;-16.488;2023-07-16T11:38:41;98732.84;;;25.94;53.65
63009;BME280;49099;28.428;-16.488;2023-07-16T11:41:08;98739.56;;;26.00;54.43
63009;BME280;49099;28.428;-16.488;2023-07-16T11:43:36;98734.06;;;25.97;55.64
63009;BME280;49099;28.428;-16.488;2023-07-16T11:46:13;98734.50;;;25.79;56.30
63009;BME280;49099;28.428;-16.488;2023-07-16T11:48:42;98741.78;;;25.56;57.01
63009;BME280;49099;28.428;-16.488;2023-07-16T11:51:09;98737.84;;;25.53;56.91
63009;BME280;49099;28.428;-16.488;2023-07-16T11:53:36;98741.84;;;25.60;56.83
63009;BME280;49099;28.428;-16.488;2023-07-16T11:56:05;98748.50;;;25.62;57.02
63009;BME280;49099;28.428;-16.488;2023-07-16T11:58:33;98744.06;;;25.54;56.48
63009;BME280;49099;28.428;-16.488;2023-07-16T12:01:00;98748.03;;;25.60;55.91
63009;BME280;49099;28.428;-16.488;2023-07-16T12:03:27;98738.22;;;25.71;55.76
63009;BME280;49099;28.428;-16.488;2023-07-16T12:05:54;98737.63;;;25.81;54.72
63009;BME280;49099;28.428;-16.488;2023-07-16T12:08:22;98735.63;;;25.98;54.70
63009;BME280;49099;28.428;-16.488;2023-07-16T12:10:49;98741.91;;;26.02;53.06
63009;BME280;49099;28.428;-16.488;2023-07-16T12:13:16;98742.56;;;25.95;54.01
63009;BME280;49099;28.428;-16.488;2023-07-16T12:15:43;98739.72;;;26.07;53.91
63009;BME280;49099;28.428;-16.488;2023-07-16T12:18:10;98732.81;;;26.14;53.70
63009;BME280;49099;28.428;-16.488;2023-07-16T12:20:37;98735.00;;;26.27;53.55
63009;BME280;49099;28.428;-16.488;2023-07-16T12:23:06;98731.66;;;26.57;53.42
63009;BME280;49099;28.428;-16.488;2023-07-16T12:25:33;98734.16;;;26.69;52.64
63009;BME280;49099;28.428;-16.488;2023-07-16T12:28:00;98739.66;;;26.73;52.23
63009;BME280;49099;28.428;-16.488;2023-07-16T12:30:28;98734.59;;;26.71;52.11
63009;BME280;49099;28.428;-16.488;2023-07-16T12:32:56;98729.44;;;26.66;53.07
63009;BME280;49099;28.428;-16.488;2023-07-16T12:35:23;98722.56;;;26.72;52.90
63009;BME280;49099;28.428;-16.488;2023-07-16T12:37:50;98727.06;;;26.87;51.57
63009;BME280;49099;28.428;-16.488;2023-07-16T12:40:18;98717.91;;;26.99;51.04
63009;BME280;49099;28.428;-16.488;2023-07-16T12:42:45;98729.91;;;26.94;51.83
63009;BME280;49099;28.428;-16.488;2023-07-16T12:45:12;98724.75;;;26.89;51.28
63009;BME280;49099;28.428;-16.488;2023-07-16T12:47:40;98727.84;;;26.88;50.16
63009;BME280;49099;28.428;-16.488;2023-07-16T12:50:07;98734.81;;;27.08;46.59